Main page
METAR-TAF:

METAR-TAF

Airports :

St. Paul Downtown Airport

Saint Paul, Minnesota, United States

latitude: 44-55-49N, longitude: 093-02-53W, elevation: 702 ft

Current weather observation

The report was made 18 minutes ago, at 20:53 UTC
Wind 9 mph from the West/Southwest
Temperature 12°F
Humidity 40%
Pressure 30.69 in. Hg
Visibility: 10 miles
Clear sky

METAR: KSTP 202053Z 24008KT 10SM CLR M11/M22 A3069 RMK AO2 SLP408 T11061217 56027

Time: 15:11 (21:11 UTC)


TAF: missing

Weather observations and forecasts of more than 4000 airports (METAR and TAF reports).

The available stations are represented by yellow and red dots on the map.

Hover mouse over dot to see the name of the station.

Then click to see weather observations and forecasts.

To change the map : click on the green buttons with a black cross to zoom in, on the green button with a dash to zoom out, or on the green arrows for adjacent maps.


METAR-TAF: